sensor_id;sensor_type;location;lat;lon;timestamp;pressure;altitude;pressure_sealevel;temperature
76007;BMP280;64699;0.000;0.000;2023-09-30T00:02:21;100741.38;;;20.06
76007;BMP280;64699;0.000;0.000;2023-09-30T00:04:46;100731.09;;;20.07
76007;BMP280;64699;0.000;0.000;2023-09-30T00:07:11;100742.13;;;20.07
76007;BMP280;64699;0.000;0.000;2023-09-30T00:09:37;100735.84;;;20.06
76007;BMP280;64699;0.000;0.000;2023-09-30T00:12:02;100727.59;;;20.06
76007;BMP280;64699;0.000;0.000;2023-09-30T00:14:27;100729.59;;;20.06
76007;BMP280;64699;0.000;0.000;2023-09-30T00:16:54;100732.38;;;20.06
76007;BMP280;64699;0.000;0.000;2023-09-30T00:19:19;100730.34;;;20.06
76007;BMP280;64699;0.000;0.000;2023-09-30T00:21:45;100722.06;;;20.06
76007;BMP280;64699;0.000;0.000;2023-09-30T00:24:10;100731.09;;;20.07
76007;BMP280;64699;0.000;0.000;2023-09-30T00:26:35;100726.28;;;20.07
76007;BMP280;64699;0.000;0.000;2023-09-30T00:29:01;100718.00;;;20.07
76007;BMP280;64699;0.000;0.000;2023-09-30T00:31:29;100720.75;;;20.07
76007;BMP280;64699;0.000;0.000;2023-09-30T00:33:55;100721.50;;;20.08
76007;BMP280;64699;0.000;0.000;2023-09-30T00:36:21;100721.50;;;20.08
76007;BMP280;64699;0.000;0.000;2023-09-30T00:38:46;100723.50;;;20.07
76007;BMP280;64699;0.000;0.000;2023-09-30T00:41:11;100720.75;;;20.07
76007;BMP280;64699;0.000;0.000;2023-09-30T00:43:36;100721.50;;;20.08
76007;BMP280;64699;0.000;0.000;2023-09-30T00:48:28;100712.50;;;20.07
76007;BMP280;64699;0.000;0.000;2023-09-30T00:50:53;100720.75;;;20.07
76007;BMP280;64699;0.000;0.000;2023-09-30T00:53:18;100705.69;;;20.08
76007;BMP280;64699;0.000;0.000;2023-09-30T00:55:44;100707.72;;;20.08
76007;BMP280;64699;0.000;0.000;2023-09-30T00:58:09;100712.50;;;20.07
76007;BMP280;64699;0.000;0.000;2023-09-30T01:00:34;100709.72;;;20.07
76007;BMP280;64699;0.000;0.000;2023-09-30T01:03:00;100707.72;;;20.08
76007;BMP280;64699;0.000;0.000;2023-09-30T01:05:29;100709.72;;;20.07
76007;BMP280;64699;0.000;0.000;2023-09-30T01:07:54;100715.25;;;20.07
76007;BMP280;64699;0.000;0.000;2023-09-30T01:10:20;100716.00;;;20.08
76007;BMP280;64699;0.000;0.000;2023-09-30T01:12:45;100713.25;;;20.08
76007;BMP280;64699;0.000;0.000;2023-09-30T01:15:11;100720.06;;;20.07
76007;BMP280;64699;0.000;0.000;2023-09-30T01:17:37;100713.97;;;20.08
76007;BMP280;64699;0.000;0.000;2023-09-30T01:20:02;100715.25;;;20.07
76007;BMP280;64699;0.000;0.000;2023-09-30T01:22:31;100719.50;;;20.08
76007;BMP280;64699;0.000;0.000;2023-09-30T01:24:56;100719.50;;;20.08
76007;BMP280;64699;0.000;0.000;2023-09-30T01:27:22;100718.25;;;20.09
76007;BMP280;64699;0.000;0.000;2023-09-30T01:29:47;100718.25;;;20.09
76007;BMP280;64699;0.000;0.000;2023-09-30T01:32:13;100711.22;;;20.08
76007;BMP280;64699;0.000;0.000;2023-09-30T01:34:39;100716.97;;;20.10
76007;BMP280;64699;0.000;0.000;2023-09-30T01:37:04;100710.69;;;20.10
76007;BMP280;64699;0.000;0.000;2023-09-30T01:39:31;100711.22;;;20.08
76007;BMP280;64699;0.000;0.000;2023-09-30T01:41:57;100704.44;;;20.09
76007;BMP280;64699;0.000;0.000;2023-09-30T01:44:22;100709.97;;;20.09
76007;BMP280;64699;0.000;0.000;2023-09-30T01:46:48;100700.94;;;20.09
76007;BMP280;64699;0.000;0.000;2023-09-30T01:49:13;100701.69;;;20.09
76007;BMP280;64699;0.000;0.000;2023-09-30T01:51:38;100709.22;;;20.09
76007;BMP280;64699;0.000;0.000;2023-09-30T01:54:04;100704.44;;;20.09
76007;BMP280;64699;0.000;0.000;2023-09-30T01:56:30;100701.69;;;20.09
76007;BMP280;64699;0.000;0.000;2023-09-30T01:58:55;100703.19;;;20.10
76007;BMP280;64699;0.000;0.000;2023-09-30T02:01:20;100697.66;;;20.10
76007;BMP280;64699;0.000;0.000;2023-09-30T02:03:46;100699.16;;;20.11
76007;BMP280;64699;0.000;0.000;2023-09-30T02:06:11;100690.88;;;20.11
76007;BMP280;64699;0.000;0.000;2023-09-30T02:08:37;100698.41;;;20.11
76007;BMP280;64699;0.000;0.000;2023-09-30T02:11:02;100692.16;;;20.10
76007;BMP280;64699;0.000;0.000;2023-09-30T02:13:28;100687.34;;;20.11
76007;BMP280;64699;0.000;0.000;2023-09-30T02:15:53;100692.88;;;20.11
76007;BMP280;64699;0.000;0.000;2023-09-30T02:18:20;100688.81;;;20.12
76007;BMP280;64699;0.000;0.000;2023-09-30T02:20:46;100684.06;;;20.12
76007;BMP280;64699;0.000;0.000;2023-09-30T02:23:11;100686.81;;;20.12
76007;BMP280;64699;0.000;0.000;2023-09-30T02:25:37;100686.06;;;20.12
76007;BMP280;64699;0.000;0.000;2023-09-30T02:28:02;100689.56;;;20.12
76007;BMP280;64699;0.000;0.000;2023-09-30T02:30:27;100687.34;;;20.11
76007;BMP280;64699;0.000;0.000;2023-09-30T02:32:52;100683.28;;;20.12
76007;BMP280;64699;0.000;0.000;2023-09-30T02:35:17;100681.84;;;20.11
76007;BMP280;64699;0.000;0.000;2023-09-30T02:37:44;100684.28;;;20.14
76007;BMP280;64699;0.000;0.000;2023-09-30T02:40:09;100679.50;;;20.15
76007;BMP280;64699;0.000;0.000;2023-09-30T02:42:38;100676.09;;;20.22
76007;BMP280;64699;0.000;0.000;2023-09-30T02:45:04;100679.56;;;20.22
76007;BMP280;64699;0.000;0.000;2023-09-30T02:47:30;100677.91;;;20.19
76007;BMP280;64699;0.000;0.000;2023-09-30T02:49:56;100676.41;;;20.18
76007;BMP280;64699;0.000;0.000;2023-09-30T02:52:22;100670.91;;;20.18
76007;BMP280;64699;0.000;0.000;2023-09-30T02:54:47;100671.41;;;20.17
76007;BMP280;64699;0.000;0.000;2023-09-30T02:57:12;100669.94;;;20.16
76007;BMP280;64699;0.000;0.000;2023-09-30T02:59:37;100684.44;;;20.16
76007;BMP280;64699;0.000;0.000;2023-09-30T03:02:02;100677.69;;;20.17
76007;BMP280;64699;0.000;0.000;2023-09-30T03:04:31;100674.94;;;20.17
76007;BMP280;64699;0.000;0.000;2023-09-30T03:06:57;100683.22;;;20.17
76007;BMP280;64699;0.000;0.000;2023-09-30T03:09:23;100667.91;;;20.16
76007;BMP280;64699;0.000;0.000;2023-09-30T03:11:48;100669.41;;;20.17
76007;BMP280;64699;0.000;0.000;2023-09-30T03:14:15;100663.91;;;20.17
76007;BMP280;64699;0.000;0.000;2023-09-30T03:16:40;100669.41;;;20.17
76007;BMP280;64699;0.000;0.000;2023-09-30T03:19:06;100656.88;;;20.16
76007;BMP280;64699;0.000;0.000;2023-09-30T03:21:34;100667.16;;;20.16
76007;BMP280;64699;0.000;0.000;2023-09-30T03:24:00;100667.91;;;20.16
76007;BMP280;64699;0.000;0.000;2023-09-30T03:26:25;100666.44;;;20.15
76007;BMP280;64699;0.000;0.000;2023-09-30T03:28:54;100662.38;;;20.16
76007;BMP280;64699;0.000;0.000;2023-09-30T03:31:20;100661.13;;;20.17
76007;BMP280;64699;0.000;0.000;2023-09-30T03:33:45;100670.91;;;20.18
76007;BMP280;64699;0.000;0.000;2023-09-30T03:36:13;100666.09;;;20.19
76007;BMP280;64699;0.000;0.000;2023-09-30T03:38:38;100665.38;;;20.18
76007;BMP280;64699;0.000;0.000;2023-09-30T03:41:04;100671.63;;;20.19
76007;BMP280;64699;0.000;0.000;2023-09-30T03:43:33;100677.16;;;20.19
76007;BMP280;64699;0.000;0.000;2023-09-30T03:45:59;100672.38;;;20.19
76007;BMP280;64699;0.000;0.000;2023-09-30T03:48:25;100666.09;;;20.19
76007;BMP280;64699;0.000;0.000;2023-09-30T03:50:51;100660.59;;;20.19
76007;BMP280;64699;0.000;0.000;2023-09-30T03:53:17;100665.38;;;20.18
76007;BMP280;64699;0.000;0.000;2023-09-30T03:55:42;100660.59;;;20.19
76007;BMP280;64699;0.000;0.000;2023-09-30T03:58:08;100668.31;;;20.20
76007;BMP280;64699;0.000;0.000;2023-09-30T04:00:33;100666.88;;;20.19
76007;BMP280;64699;0.000;0.000;2023-09-30T04:02:58;100667.59;;;20.20
76007;BMP280;64699;0.000;0.000;2023-09-30T04:05:24;100662.63;;;20.18
76007;BMP280;64699;0.000;0.000;2023-09-30T04:07:57;100661.34;;;20.19
76007;BMP280;64699;0.000;0.000;2023-09-30T04:10:23;100659.09;;;20.18
76007;BMP280;64699;0.000;0.000;2023-09-30T04:12:48;100654.34;;;20.18
76007;BMP280;64699;0.000;0.000;2023-09-30T04:15:13;100661.88;;;20.18
76007;BMP280;64699;0.000;0.000;2023-09-30T04:17:39;100663.34;;;20.19
76007;BMP280;64699;0.000;0.000;2023-09-30T04:20:08;100660.59;;;20.19
76007;BMP280;64699;0.000;0.000;2023-09-30T04:22:36;100670.13;;;20.18
76007;BMP280;64699;0.000;0.000;2023-09-30T04:25:01;100665.38;;;20.18
76007;BMP280;64699;0.000;0.000;2023-09-30T04:27:30;100667.38;;;20.18
76007;BMP280;64699;0.000;0.000;2023-09-30T04:29:55;100673.66;;;20.18
76007;BMP280;64699;0.000;0.000;2023-09-30T04:32:20;100668.13;;;20.18
76007;BMP280;64699;0.000;0.000;2023-09-30T04:34:46;100677.16;;;20.19
76007;BMP280;64699;0.000;0.000;2023-09-30T04:37:12;100675.13;;;20.19
76007;BMP280;64699;0.000;0.000;2023-09-30T04:39:37;100668.13;;;20.18
76007;BMP280;64699;0.000;0.000;2023-09-30T04:42:02;100662.63;;;20.18
76007;BMP280;64699;0.000;0.000;2023-09-30T04:44:29;100659.88;;;20.18
76007;BMP280;64699;0.000;0.000;2023-09-30T04:46:54;100666.88;;;20.19
76007;BMP280;64699;0.000;0.000;2023-09-30T04:49:19;100662.63;;;20.18
76007;BMP280;64699;0.000;0.000;2023-09-30T04:51:45;100658.38;;;20.17
76007;BMP280;64699;0.000;0.000;2023-09-30T04:54:10;100659.88;;;20.18
76007;BMP280;64699;0.000;0.000;2023-09-30T04:56:35;100658.59;;;20.19
76007;BMP280;64699;0.000;0.000;2023-09-30T04:59:01;100654.34;;;20.18
76007;BMP280;64699;0.000;0.000;2023-09-30T05:01:27;100661.34;;;20.19
76007;BMP280;64699;0.000;0.000;2023-09-30T05:03:52;100667.59;;;20.20
76007;BMP280;64699;0.000;0.000;2023-09-30T05:06:18;100664.84;;;20.20
76007;BMP280;64699;0.000;0.000;2023-09-30T05:08:43;100665.56;;;20.20
76007;BMP280;64699;0.000;0.000;2023-09-30T05:11:08;100663.53;;;20.21
76007;BMP280;64699;0.000;0.000;2023-09-30T05:13:33;100664.09;;;20.19
76007;BMP280;64699;0.000;0.000;2023-09-30T05:15:59;100657.28;;;20.20
76007;BMP280;64699;0.000;0.000;2023-09-30T05:18:24;100658.59;;;20.19
76007;BMP280;64699;0.000;0.000;2023-09-30T05:20:49;100668.31;;;20.20
76007;BMP280;64699;0.000;0.000;2023-09-30T05:23:15;100666.28;;;20.21
76007;BMP280;64699;0.000;0.000;2023-09-30T05:25:40;100671.09;;;20.20
76007;BMP280;64699;0.000;0.000;2023-09-30T05:28:07;100671.81;;;20.21
76007;BMP280;64699;0.000;0.000;2023-09-30T05:30:33;100675.31;;;20.21
76007;BMP280;64699;0.000;0.000;2023-09-30T05:32:58;100678.84;;;20.22
76007;BMP280;64699;0.000;0.000;2023-09-30T05:35:24;100681.81;;;20.24
76007;BMP280;64699;0.000;0.000;2023-09-30T05:37:49;100684.56;;;20.24
76007;BMP280;64699;0.000;0.000;2023-09-30T05:40:17;100682.31;;;20.22
76007;BMP280;64699;0.000;0.000;2023-09-30T05:42:55;100683.09;;;20.23
76007;BMP280;64699;0.000;0.000;2023-09-30T05:45:23;100682.31;;;20.22
76007;BMP280;64699;0.000;0.000;2023-09-30T05:47:48;100677.56;;;20.23
76007;BMP280;64699;0.000;0.000;2023-09-30T05:50:13;100683.09;;;20.23
76007;BMP280;64699;0.000;0.000;2023-09-30T05:52:41;100687.31;;;20.24
76007;BMP280;64699;0.000;0.000;2023-09-30T05:55:07;100685.09;;;20.22
76007;BMP280;64699;0.000;0.000;2023-09-30T05:57:32;100691.88;;;20.21
76007;BMP280;64699;0.000;0.000;2023-09-30T05:59:57;100689.88;;;20.22
76007;BMP280;64699;0.000;0.000;2023-09-30T06:02:26;100693.38;;;20.22
76007;BMP280;64699;0.000;0.000;2023-09-30T06:04:51;100704.41;;;20.22
76007;BMP280;64699;0.000;0.000;2023-09-30T06:07:18;100697.41;;;20.21
76007;BMP280;64699;0.000;0.000;2023-09-30T06:09:45;100705.88;;;20.23
76007;BMP280;64699;0.000;0.000;2023-09-30T06:12:10;100702.41;;;20.23
76007;BMP280;64699;0.000;0.000;2023-09-30T06:14:36;100707.34;;;20.24
76007;BMP280;64699;0.000;0.000;2023-09-30T06:17:02;100710.34;;;20.26
76007;BMP280;64699;0.000;0.000;2023-09-30T06:19:27;100713.63;;;20.25
76007;BMP280;64699;0.000;0.000;2023-09-30T06:21:52;100713.81;;;20.27
76007;BMP280;64699;0.000;0.000;2023-09-30T06:24:17;100717.13;;;20.25
76007;BMP280;64699;0.000;0.000;2023-09-30T06:26:45;100719.13;;;20.25
76007;BMP280;64699;0.000;0.000;2023-09-30T06:29:13;100727.41;;;20.25
76007;BMP280;64699;0.000;0.000;2023-09-30T06:31:38;100728.06;;;20.31
76007;BMP280;64699;0.000;0.000;2023-09-30T06:34:04;100734.91;;;19.91
76007;BMP280;64699;0.000;0.000;2023-09-30T06:36:30;100734.72;;;19.63
76007;BMP280;64699;0.000;0.000;2023-09-30T06:38:55;100723.38;;;19.41
76007;BMP280;64699;0.000;0.000;2023-09-30T06:41:20;100742.53;;;19.33
76007;BMP280;64699;0.000;0.000;2023-09-30T06:43:45;100742.75;;;19.22
76007;BMP280;64699;0.000;0.000;2023-09-30T06:46:11;100737.34;;;19.17
76007;BMP280;64699;0.000;0.000;2023-09-30T06:48:38;100737.09;;;19.15
76007;BMP280;64699;0.000;0.000;2023-09-30T06:51:05;100748.69;;;19.14
76007;BMP280;64699;0.000;0.000;2023-09-30T06:53:30;100743.50;;;19.10
76007;BMP280;64699;0.000;0.000;2023-09-30T06:55:56;100746.25;;;19.10
76007;BMP280;64699;0.000;0.000;2023-09-30T06:58:21;100759.53;;;19.06
76007;BMP280;64699;0.000;0.000;2023-09-30T07:00:47;100755.31;;;19.05
76007;BMP280;64699;0.000;0.000;2023-09-30T07:03:13;100761.25;;;19.09
76007;BMP280;64699;0.000;0.000;2023-09-30T07:05:40;100761.59;;;19.06
76007;BMP280;64699;0.000;0.000;2023-09-30T07:08:05;100766.34;;;19.05
76007;BMP280;64699;0.000;0.000;2023-09-30T07:10:30;100765.53;;;19.10
76007;BMP280;64699;0.000;0.000;2023-09-30T07:12:56;100768.97;;;19.11
76007;BMP280;64699;0.000;0.000;2023-09-30T07:15:22;100761.03;;;19.07
76007;BMP280;64699;0.000;0.000;2023-09-30T07:17:47;100765.72;;;19.12
76007;BMP280;64699;0.000;0.000;2023-09-30T07:20:12;100774.19;;;19.14
76007;BMP280;64699;0.000;0.000;2023-09-30T07:22:38;100771.56;;;19.21
76007;BMP280;64699;0.000;0.000;2023-09-30T07:25:03;100784.59;;;19.21
76007;BMP280;64699;0.000;0.000;2023-09-30T07:27:29;100783.53;;;19.24
76007;BMP280;64699;0.000;0.000;2023-09-30T07:29:54;100783.22;;;19.27
76007;BMP280;64699;0.000;0.000;2023-09-30T07:32:20;100788.97;;;19.29
76007;BMP280;64699;0.000;0.000;2023-09-30T07:34:48;100787.38;;;19.34
76007;BMP280;64699;0.000;0.000;2023-09-30T07:37:13;100784.84;;;19.36
76007;BMP280;64699;0.000;0.000;2023-09-30T07:39:39;100784.53;;;19.39
76007;BMP280;64699;0.000;0.000;2023-09-30T07:42:04;100784.94;;;19.43
76007;BMP280;64699;0.000;0.000;2023-09-30T07:44:30;100791.66;;;19.48
76007;BMP280;64699;0.000;0.000;2023-09-30T07:46:57;100780.84;;;19.50
76007;BMP280;64699;0.000;0.000;2023-09-30T07:49:22;100782.97;;;19.57
76007;BMP280;64699;0.000;0.000;2023-09-30T07:51:48;100781.91;;;19.60
76007;BMP280;64699;0.000;0.000;2023-09-30T07:54:14;100781.91;;;19.60
76007;BMP280;64699;0.000;0.000;2023-09-30T07:56:39;100778.00;;;19.68
76007;BMP280;64699;0.000;0.000;2023-09-30T07:59:04;100783.84;;;19.65
76007;BMP280;64699;0.000;0.000;2023-09-30T08:01:30;100783.50;;;19.68
76007;BMP280;64699;0.000;0.000;2023-09-30T08:03:55;100777.91;;;19.74
76007;BMP280;64699;0.000;0.000;2023-09-30T08:06:21;100789.13;;;19.76
76007;BMP280;64699;0.000;0.000;2023-09-30T08:08:46;100785.31;;;19.79
76007;BMP280;64699;0.000;0.000;2023-09-30T08:11:12;100783.16;;;19.85
76007;BMP280;64699;0.000;0.000;2023-09-30T08:13:37;100785.72;;;19.83
76007;BMP280;64699;0.000;0.000;2023-09-30T08:16:03;100785.19;;;19.84
76007;BMP280;64699;0.000;0.000;2023-09-30T08:18:28;100791.69;;;19.87
76007;BMP280;64699;0.000;0.000;2023-09-30T08:20:53;100786.59;;;19.91
76007;BMP280;64699;0.000;0.000;2023-09-30T08:23:18;100777.34;;;19.88
76007;BMP280;64699;0.000;0.000;2023-09-30T08:25:43;100782.00;;;19.93
76007;BMP280;64699;0.000;0.000;2023-09-30T08:28:09;100780.59;;;19.99
76007;BMP280;64699;0.000;0.000;2023-09-30T08:30:35;100787.09;;;20.15
76007;BMP280;64699;0.000;0.000;2023-09-30T08:33:00;100784.09;;;20.13
76007;BMP280;64699;0.000;0.000;2023-09-30T08:35:25;100780.59;;;20.12
76007;BMP280;64699;0.000;0.000;2023-09-30T08:37:50;100782.53;;;20.17
76007;BMP280;64699;0.000;0.000;2023-09-30T08:40:24;100787.50;;;20.19
76007;BMP280;64699;0.000;0.000;2023-09-30T08:42:52;100783.47;;;20.20
76007;BMP280;64699;0.000;0.000;2023-09-30T08:45:18;100791.41;;;20.23
76007;BMP280;64699;0.000;0.000;2023-09-30T08:47:43;100775.28;;;20.27
76007;BMP280;64699;0.000;0.000;2023-09-30T08:50:08;100781.00;;;20.29
76007;BMP280;64699;0.000;0.000;2023-09-30T08:52:35;100781.75;;;20.30
76007;BMP280;64699;0.000;0.000;2023-09-30T08:55:01;100776.97;;;20.30
76007;BMP280;64699;0.000;0.000;2023-09-30T08:57:26;100782.66;;;20.32
76007;BMP280;64699;0.000;0.000;2023-09-30T08:59:53;100778.66;;;20.33
76007;BMP280;64699;0.000;0.000;2023-09-30T09:02:18;100793.28;;;20.41
76007;BMP280;64699;0.000;0.000;2023-09-30T09:04:46;100791.38;;;20.36
76007;BMP280;64699;0.000;0.000;2023-09-30T09:07:12;100786.72;;;20.44
76007;BMP280;64699;0.000;0.000;2023-09-30T09:09:37;100795.72;;;20.45
76007;BMP280;64699;0.000;0.000;2023-09-30T09:12:03;100792.22;;;20.44
76007;BMP280;64699;0.000;0.000;2023-09-30T09:14:37;100800.69;;;20.46
76007;BMP280;64699;0.000;0.000;2023-09-30T09:17:03;100795.09;;;20.39
76007;BMP280;64699;0.000;0.000;2023-09-30T09:19:30;100794.34;;;20.38
76007;BMP280;64699;0.000;0.000;2023-09-30T09:21:59;100801.03;;;20.43
76007;BMP280;64699;0.000;0.000;2023-09-30T09:24:32;100796.59;;;20.40
76007;BMP280;64699;0.000;0.000;2023-09-30T09:27:07;100792.84;;;20.37
76007;BMP280;64699;0.000;0.000;2023-09-30T09:29:33;100796.03;;;20.41
76007;BMP280;64699;0.000;0.000;2023-09-30T09:32:08;100799.53;;;20.42
76007;BMP280;64699;0.000;0.000;2023-09-30T09:34:34;100803.44;;;20.46
76007;BMP280;64699;0.000;0.000;2023-09-30T09:37:00;100804.72;;;20.45
76007;BMP280;64699;0.000;0.000;2023-09-30T09:39:37;100804.31;;;20.41
76007;BMP280;64699;0.000;0.000;2023-09-30T09:42:02;100805.81;;;20.42
76007;BMP280;64699;0.000;0.000;2023-09-30T09:44:28;100805.63;;;20.40
76007;BMP280;64699;0.000;0.000;2023-09-30T09:46:54;100809.41;;;20.37
76007;BMP280;64699;0.000;0.000;2023-09-30T09:49:21;100814.94;;;20.37
76007;BMP280;64699;0.000;0.000;2023-09-30T09:51:47;100816.41;;;20.38
76007;BMP280;64699;0.000;0.000;2023-09-30T09:54:13;100816.22;;;20.36
76007;BMP280;64699;0.000;0.000;2023-09-30T09:56:39;100812.81;;;20.43
76007;BMP280;64699;0.000;0.000;2023-09-30T09:59:04;100814.59;;;20.41
76007;BMP280;64699;0.000;0.000;2023-09-30T10:01:31;100814.94;;;20.37
76007;BMP280;64699;0.000;0.000;2023-09-30T10:03:58;100818.44;;;20.38
76007;BMP280;64699;0.000;0.000;2023-09-30T10:06:24;100817.69;;;20.37
76007;BMP280;64699;0.000;0.000;2023-09-30T10:08:49;100819.94;;;20.39
76007;BMP280;64699;0.000;0.000;2023-09-30T10:11:17;100815.38;;;20.41
76007;BMP280;64699;0.000;0.000;2023-09-30T10:13:58;100833.41;;;20.42
76007;BMP280;64699;0.000;0.000;2023-09-30T10:19:09;100833.22;;;20.40
76007;BMP280;64699;0.000;0.000;2023-09-30T10:21:35;100839.66;;;20.43
76007;BMP280;64699;0.000;0.000;2023-09-30T10:26:44;100844.00;;;20.51
76007;BMP280;64699;0.000;0.000;2023-09-30T10:29:09;100845.25;;;20.63
76007;BMP280;64699;0.000;0.000;2023-09-30T10:31:35;100846.06;;;20.71
76007;BMP280;64699;0.000;0.000;2023-09-30T10:34:20;100845.97;;;20.77
76007;BMP280;64699;0.000;0.000;2023-09-30T10:36:45;100855.72;;;20.78
76007;BMP280;64699;0.000;0.000;2023-09-30T10:39:11;100852.63;;;20.81
76007;BMP280;64699;0.000;0.000;2023-09-30T10:46:47;100865.16;;;20.82
76007;BMP280;64699;0.000;0.000;2023-09-30T10:49:16;100868.13;;;20.84
76007;BMP280;64699;0.000;0.000;2023-09-30T10:51:44;100876.41;;;20.84
76007;BMP280;64699;0.000;0.000;2023-09-30T10:54:11;100865.16;;;20.82
76007;BMP280;64699;0.000;0.000;2023-09-30T10:56:37;100870.88;;;20.84
76007;BMP280;64699;0.000;0.000;2023-09-30T10:59:02;100869.59;;;20.85
76007;BMP280;64699;0.000;0.000;2023-09-30T11:01:32;100880.63;;;20.85
76007;BMP280;64699;0.000;0.000;2023-09-30T11:04:01;100884.69;;;20.84
76007;BMP280;64699;0.000;0.000;2023-09-30T11:06:30;100888.91;;;20.85
76007;BMP280;64699;0.000;0.000;2023-09-30T11:08:57;100885.47;;;20.84
76007;BMP280;64699;0.000;0.000;2023-09-30T11:14:03;100890.97;;;20.84
76007;BMP280;64699;0.000;0.000;2023-09-30T11:16:39;100899.25;;;20.84
76007;BMP280;64699;0.000;0.000;2023-09-30T11:19:05;100900.22;;;20.87
76007;BMP280;64699;0.000;0.000;2023-09-30T11:21:32;100900.22;;;20.87
76007;BMP280;64699;0.000;0.000;2023-09-30T11:23:58;100909.75;;;20.86
76007;BMP280;64699;0.000;0.000;2023-09-30T11:26:30;100914.53;;;20.85
76007;BMP280;64699;0.000;0.000;2023-09-30T11:29:04;100914.53;;;20.85
76007;BMP280;64699;0.000;0.000;2023-09-30T11:31:29;100924.81;;;20.85
76007;BMP280;64699;0.000;0.000;2023-09-30T11:33:58;100927.06;;;20.86
76007;BMP280;64699;0.000;0.000;2023-09-30T11:36:28;100930.34;;;20.85
76007;BMP280;64699;0.000;0.000;2023-09-30T11:38:53;100926.31;;;20.86
76007;BMP280;64699;0.000;0.000;2023-09-30T11:41:19;100937.34;;;20.86
76007;BMP280;64699;0.000;0.000;2023-09-30T11:46:29;100941.41;;;20.85
76007;BMP280;64699;0.000;0.000;2023-09-30T11:48:59;100930.34;;;20.85
76007;BMP280;64699;0.000;0.000;2023-09-30T11:51:27;100931.84;;;20.86
76007;BMP280;64699;0.000;0.000;2023-09-30T11:53:53;100933.88;;;20.85
76007;BMP280;64699;0.000;0.000;2023-09-30T11:56:19;100939.59;;;20.87
76007;BMP280;64699;0.000;0.000;2023-09-30T11:58:45;100944.41;;;20.87
76007;BMP280;64699;0.000;0.000;2023-09-30T12:01:11;100940.88;;;20.86
76007;BMP280;64699;0.000;0.000;2023-09-30T12:03:38;100949.94;;;20.87
76007;BMP280;64699;0.000;0.000;2023-09-30T12:06:05;100953.94;;;20.86
76007;BMP280;64699;0.000;0.000;2023-09-30T12:08:30;100946.91;;;20.85
76007;BMP280;64699;0.000;0.000;2023-09-30T12:10:57;100951.94;;;20.86
76007;BMP280;64699;0.000;0.000;2023-09-30T12:13:23;100948.41;;;20.86
76007;BMP280;64699;0.000;0.000;2023-09-30T12:15:48;100959.47;;;20.86
76007;BMP280;64699;0.000;0.000;2023-09-30T12:18:14;100951.94;;;20.86
76007;BMP280;64699;0.000;0.000;2023-09-30T12:20:42;100949.16;;;20.86
76007;BMP280;64699;0.000;0.000;2023-09-30T12:23:07;100942.16;;;20.85
76007;BMP280;64699;0.000;0.000;2023-09-30T12:25:33;100948.41;;;20.86
76007;BMP280;64699;0.000;0.000;2023-09-30T12:27:58;100953.94;;;20.86
76007;BMP280;64699;0.000;0.000;2023-09-30T12:30:24;100951.94;;;20.86
76007;BMP280;64699;0.000;0.000;2023-09-30T12:32:49;100962.22;;;20.86
76007;BMP280;64699;0.000;0.000;2023-09-30T12:35:14;100954.69;;;20.86
76007;BMP280;64699;0.000;0.000;2023-09-30T12:37:39;100959.47;;;20.86
76007;BMP280;64699;0.000;0.000;2023-09-30T12:40:05;100970.50;;;20.86
76007;BMP280;64699;0.000;0.000;2023-09-30T12:42:32;100970.50;;;20.86
76007;BMP280;64699;0.000;0.000;2023-09-30T12:44:59;100967.00;;;20.85
76007;BMP280;64699;0.000;0.000;2023-09-30T12:47:24;100970.31;;;20.84
76007;BMP280;64699;0.000;0.000;2023-09-30T12:49:49;100969.00;;;20.85
76007;BMP280;64699;0.000;0.000;2023-09-30T12:52:14;100968.31;;;20.84
76007;BMP280;64699;0.000;0.000;2023-09-30T12:54:40;100964.38;;;20.80
76007;BMP280;64699;0.000;0.000;2023-09-30T12:57:05;100973.06;;;20.84
76007;BMP280;64699;0.000;0.000;2023-09-30T12:59:32;100962.78;;;20.84
76007;BMP280;64699;0.000;0.000;2023-09-30T13:01:59;100967.56;;;20.84
76007;BMP280;64699;0.000;0.000;2023-09-30T13:04:24;100956.50;;;20.84
76007;BMP280;64699;0.000;0.000;2023-09-30T13:06:50;100961.31;;;20.83
76007;BMP280;64699;0.000;0.000;2023-09-30T13:09:15;100966.06;;;20.83
76007;BMP280;64699;0.000;0.000;2023-09-30T13:11:41;100970.09;;;20.82
76007;BMP280;64699;0.000;0.000;2023-09-30T13:14:06;100972.34;;;20.83
76007;BMP280;64699;0.000;0.000;2023-09-30T13:16:32;100970.84;;;20.82
76007;BMP280;64699;0.000;0.000;2023-09-30T13:18:57;100971.59;;;20.83
76007;BMP280;64699;0.000;0.000;2023-09-30T13:21:22;100972.88;;;20.82
76007;BMP280;64699;0.000;0.000;2023-09-30T13:23:47;100964.59;;;20.82
76007;BMP280;64699;0.000;0.000;2023-09-30T13:26:13;100971.59;;;20.83
76007;BMP280;64699;0.000;0.000;2023-09-30T13:28:38;100969.00;;;20.85
76007;BMP280;64699;0.000;0.000;2023-09-30T13:31:04;100966.06;;;20.83
76007;BMP280;64699;0.000;0.000;2023-09-30T13:33:29;100963.09;;;20.81
76007;BMP280;64699;0.000;0.000;2023-09-30T13:35:55;100967.34;;;20.82
76007;BMP280;64699;0.000;0.000;2023-09-30T13:38:20;100967.34;;;20.82
76007;BMP280;64699;0.000;0.000;2023-09-30T13:40:45;100961.81;;;20.82
76007;BMP280;64699;0.000;0.000;2023-09-30T13:43:11;100954.81;;;20.81
76007;BMP280;64699;0.000;0.000;2023-09-30T13:45:36;100956.28;;;20.82
76007;BMP280;64699;0.000;0.000;2023-09-30T13:48:02;100950.59;;;20.80
76007;BMP280;64699;0.000;0.000;2023-09-30T13:50:27;100946.53;;;20.81
76007;BMP280;64699;0.000;0.000;2023-09-30T13:52:53;100952.59;;;20.80
76007;BMP280;64699;0.000;0.000;2023-09-30T13:55:18;100952.03;;;20.81
76007;BMP280;64699;0.000;0.000;2023-09-30T13:57:47;100952.03;;;20.81
76007;BMP280;64699;0.000;0.000;2023-09-30T14:00:13;100949.28;;;20.81
76007;BMP280;64699;0.000;0.000;2023-09-30T14:02:38;100947.25;;;20.81
76007;BMP280;64699;0.000;0.000;2023-09-30T14:05:04;100936.00;;;20.80
76007;BMP280;64699;0.000;0.000;2023-09-30T14:07:29;100945.06;;;20.80
76007;BMP280;64699;0.000;0.000;2023-09-30T14:09:54;100949.81;;;20.80
76007;BMP280;64699;0.000;0.000;2023-09-30T14:12:19;100944.31;;;20.80
76007;BMP280;64699;0.000;0.000;2023-09-30T14:14:45;100949.81;;;20.80
76007;BMP280;64699;0.000;0.000;2023-09-30T14:17:10;100943.56;;;20.79
76007;BMP280;64699;0.000;0.000;2023-09-30T14:19:36;100944.31;;;20.80
76007;BMP280;64699;0.000;0.000;2023-09-30T14:22:02;100956.09;;;20.80